createdAt,value
2022-11-14T00:00:54.759Z,7.20
2022-11-14T00:03:21.397Z,7.20
2022-11-14T00:05:48.159Z,7.20
2022-11-14T00:08:21.541Z,7.20
2022-11-14T00:10:49.830Z,7.20
2022-11-14T00:13:17.800Z,7.20
2022-11-14T00:15:45.288Z,7.20
2022-11-14T00:18:11.913Z,7.30
2022-11-14T00:20:38.499Z,7.20
2022-11-14T00:23:05.107Z,7.20
2022-11-14T00:25:32.557Z,7.20
2022-11-14T00:27:59.626Z,7.20
2022-11-14T00:30:27.337Z,7.20
2022-11-14T00:32:53.954Z,7.20
2022-11-14T00:35:20.659Z,7.20
2022-11-14T00:37:47.252Z,7.10
2022-11-14T00:40:14.756Z,7.10
2022-11-14T00:42:41.434Z,7.10
2022-11-14T00:45:08.639Z,7.00
2022-11-14T00:47:35.251Z,7.10
2022-11-14T00:50:02.009Z,7.10
2022-11-14T00:52:28.663Z,7.00
2022-11-14T00:54:55.310Z,7.00
2022-11-14T00:57:21.918Z,6.90
2022-11-14T00:59:48.527Z,6.90
2022-11-14T01:02:15.124Z,6.90
2022-11-14T01:04:41.703Z,6.80
2022-11-14T01:07:08.322Z,6.80
2022-11-14T01:09:34.998Z,6.70
2022-11-14T01:12:01.632Z,6.70
2022-11-14T01:14:28.226Z,6.70
2022-11-14T01:16:54.822Z,6.60
2022-11-14T01:19:21.431Z,6.50
2022-11-14T01:21:48.058Z,6.60
2022-11-14T01:24:14.674Z,6.50
2022-11-14T01:26:41.262Z,6.60
2022-11-14T01:29:07.870Z,6.60
2022-11-14T01:31:34.514Z,6.60
2022-11-14T01:34:01.238Z,6.70
2022-11-14T01:36:27.899Z,6.70
2022-11-14T01:38:54.896Z,6.70
2022-11-14T01:41:22.144Z,6.80
2022-11-14T01:43:49.023Z,6.80
2022-11-14T01:46:26.332Z,6.80
2022-11-14T01:49:01.948Z,6.80
2022-11-14T01:51:41.356Z,6.80
2022-11-14T01:54:13.316Z,6.90
2022-11-14T01:56:51.693Z,6.90
2022-11-14T01:59:22.625Z,6.90
2022-11-14T02:01:51.959Z,6.90
2022-11-14T02:04:29.781Z,6.80
2022-11-14T02:07:01.019Z,6.80
2022-11-14T02:09:30.768Z,6.90
2022-11-14T02:12:00.746Z,6.80
2022-11-14T02:14:29.133Z,6.80
2022-11-14T02:17:27.311Z,6.80
2022-11-14T02:19:48.893Z,6.80
2022-11-14T02:22:15.611Z,6.80
2022-11-14T02:24:43.785Z,6.70
2022-11-14T02:27:11.658Z,6.70
2022-11-14T02:29:38.325Z,6.70
2022-11-14T02:32:10.326Z,6.70
2022-11-14T02:34:37.520Z,6.70
2022-11-14T02:37:04.403Z,6.60
2022-11-14T02:39:31.081Z,6.70
2022-11-14T02:41:57.845Z,6.70
2022-11-14T02:44:24.466Z,6.70
2022-11-14T02:46:51.059Z,6.70
2022-11-14T02:49:17.769Z,6.70
2022-11-14T02:51:44.404Z,6.70
2022-11-14T02:54:10.991Z,6.70
2022-11-14T02:56:37.641Z,6.70
2022-11-14T02:59:04.271Z,6.70
2022-11-14T03:01:30.918Z,6.70
2022-11-14T03:03:57.583Z,6.60
2022-11-14T03:06:24.175Z,6.60
2022-11-14T03:08:50.862Z,6.50
2022-11-14T03:11:17.522Z,6.50
2022-11-14T03:13:44.143Z,6.60
2022-11-14T03:16:12.644Z,6.50
2022-11-14T03:18:39.224Z,6.60
2022-11-14T03:21:15.127Z,6.60
2022-11-14T03:23:42.107Z,6.60
2022-11-14T03:26:10.379Z,6.60
2022-11-14T03:28:38.476Z,6.60
2022-11-14T03:31:06.210Z,6.60
2022-11-14T03:33:33.540Z,6.60
2022-11-14T03:36:00.267Z,6.60
2022-11-14T03:38:27.083Z,6.60
2022-11-14T03:40:54.268Z,6.50
2022-11-14T03:43:21.822Z,6.50
2022-11-14T03:45:48.525Z,6.50
2022-11-14T03:48:15.607Z,6.50
2022-11-14T03:50:43.317Z,6.50
2022-11-14T03:53:11.298Z,6.50
2022-11-14T03:55:38.920Z,6.40
2022-11-14T03:58:05.573Z,6.40
2022-11-14T04:00:32.309Z,6.40
2022-11-14T04:02:59.003Z,6.40
2022-11-14T04:05:25.788Z,6.40
2022-11-14T04:07:52.430Z,6.40
2022-11-14T04:10:19.324Z,6.40
2022-11-14T04:12:50.056Z,6.40
2022-11-14T04:15:17.503Z,6.40
2022-11-14T04:17:44.906Z,6.40
2022-11-14T04:20:12.416Z,6.40
2022-11-14T04:22:39.564Z,6.50
2022-11-14T04:25:07.434Z,6.40
2022-11-14T04:27:34.411Z,6.50
2022-11-14T04:30:01.008Z,6.40
2022-11-14T04:32:27.725Z,6.40
2022-11-14T04:34:54.393Z,6.40
2022-11-14T04:37:20.980Z,6.40
2022-11-14T04:39:47.583Z,6.40
2022-11-14T04:42:14.367Z,6.40
2022-11-14T04:44:41.014Z,6.40
2022-11-14T04:47:07.937Z,6.40
2022-11-14T04:49:34.607Z,6.40
2022-11-14T04:52:01.383Z,6.40
2022-11-14T04:54:28.006Z,6.40
2022-11-14T04:56:54.606Z,6.40
2022-11-14T04:59:21.413Z,6.40
2022-11-14T05:01:48.188Z,6.40
2022-11-14T05:04:15.151Z,6.40
2022-11-14T05:06:41.836Z,6.40
2022-11-14T05:09:08.514Z,6.40
2022-11-14T05:11:35.130Z,6.40
2022-11-14T05:14:01.767Z,6.40
2022-11-14T05:16:28.489Z,6.40
2022-11-14T05:18:55.170Z,6.40
2022-11-14T05:21:21.804Z,6.40
2022-11-14T05:23:48.423Z,6.40
2022-11-14T05:26:16.749Z,6.40
2022-11-14T05:28:43.437Z,6.40
2022-11-14T05:31:17.971Z,6.40
2022-11-14T05:33:45.829Z,6.40
2022-11-14T05:36:17.136Z,6.40
2022-11-14T05:38:44.539Z,6.40
2022-11-14T05:41:13.547Z,6.40
2022-11-14T05:43:40.998Z,6.30
2022-11-14T05:46:11.772Z,6.30
2022-11-14T05:48:38.947Z,6.30
2022-11-14T05:51:07.352Z,6.30
2022-11-14T05:53:34.641Z,6.40
2022-11-14T05:56:02.651Z,6.40
2022-11-14T05:58:29.534Z,6.30
2022-11-14T06:01:14.214Z,6.40
2022-11-14T06:03:43.095Z,6.30
2022-11-14T06:06:12.476Z,6.40
2022-11-14T06:08:39.530Z,6.40
2022-11-14T06:11:25.734Z,6.40
2022-11-14T06:13:52.390Z,6.40
2022-11-14T06:16:20.158Z,6.40
2022-11-14T06:18:47.385Z,6.40
2022-11-14T06:21:16.842Z,6.30
2022-11-14T06:23:43.928Z,6.40
2022-11-14T06:26:30.250Z,6.30
2022-11-14T06:28:57.595Z,6.30
2022-11-14T06:31:25.049Z,6.40
2022-11-14T06:33:52.185Z,6.30
2022-11-14T06:36:19.412Z,6.40
2022-11-14T06:38:46.174Z,6.40
2022-11-14T06:41:15.668Z,6.40
2022-11-14T06:43:44.656Z,6.40
2022-11-14T06:46:14.386Z,6.30
2022-11-14T06:48:41.721Z,6.30
2022-11-14T06:51:08.481Z,6.30
2022-11-14T06:53:36.506Z,6.30
2022-11-14T06:56:14.815Z,6.30
2022-11-14T06:58:44.588Z,6.30
2022-11-14T07:01:14.252Z,6.30
2022-11-14T07:03:41.840Z,6.30
2022-11-14T07:06:13.586Z,6.40
2022-11-14T07:08:40.481Z,6.40
2022-11-14T07:11:09.909Z,6.40
2022-11-14T07:13:37.767Z,6.40
2022-11-14T07:16:05.369Z,6.40
2022-11-14T07:18:33.566Z,6.40
2022-11-14T07:21:06.015Z,6.40
2022-11-14T07:23:34.310Z,6.40
2022-11-14T07:26:08.294Z,6.40
2022-11-14T07:28:41.366Z,6.40
2022-11-14T07:31:12.389Z,6.50
2022-11-14T07:33:40.040Z,6.50
2022-11-14T07:36:07.415Z,6.40
2022-11-14T07:38:35.789Z,6.50
2022-11-14T07:41:11.163Z,6.50
2022-11-14T07:43:37.984Z,6.50
2022-11-14T07:46:10.563Z,6.60
2022-11-14T07:48:37.480Z,6.60
2022-11-14T07:51:06.776Z,6.60
2022-11-14T07:53:33.987Z,6.60
2022-11-14T07:56:12.985Z,6.60
2022-11-14T07:58:41.395Z,6.60
2022-11-14T08:01:10.493Z,6.70
2022-11-14T08:03:41.040Z,6.70
2022-11-14T08:06:14.331Z,6.80
2022-11-14T08:08:41.148Z,6.80
2022-11-14T08:11:08.317Z,6.90
2022-11-14T08:13:35.119Z,6.90
2022-11-14T08:16:13.403Z,6.80
2022-11-14T08:18:41.503Z,6.80
2022-11-14T08:21:08.367Z,6.90
2022-11-14T08:23:35.044Z,6.90
2022-11-14T08:26:01.823Z,6.90
2022-11-14T08:28:28.842Z,6.90
2022-11-14T08:31:03.715Z,7.00
2022-11-14T08:33:31.179Z,6.90
2022-11-14T08:36:02.627Z,6.90
2022-11-14T08:38:30.459Z,7.00
2022-11-14T08:41:03.982Z,7.00
2022-11-14T08:43:31.799Z,7.00
2022-11-14T08:46:03.254Z,7.10
2022-11-14T08:48:31.743Z,7.10
2022-11-14T08:51:03.694Z,7.20
2022-11-14T08:53:30.999Z,7.20
2022-11-14T08:55:57.666Z,7.20
2022-11-14T08:58:24.358Z,7.30
2022-11-14T09:00:51.994Z,7.30
2022-11-14T09:03:19.211Z,7.30
2022-11-14T09:05:51.772Z,7.20
2022-11-14T09:08:18.460Z,7.30
2022-11-14T09:10:45.334Z,7.30
2022-11-14T09:13:11.980Z,7.30
2022-11-14T09:15:38.627Z,7.30
2022-11-14T09:18:05.315Z,7.40
2022-11-14T09:20:36.161Z,7.30
2022-11-14T09:23:05.907Z,7.20
2022-11-14T09:25:32.558Z,7.20
2022-11-14T09:28:04.372Z,7.30
2022-11-14T09:30:31.088Z,7.30
2022-11-14T09:33:06.922Z,7.30
2022-11-14T09:35:37.857Z,7.40
2022-11-14T09:38:07.358Z,7.40
2022-11-14T09:40:57.696Z,7.50
2022-11-14T09:43:27.510Z,7.50
2022-11-14T09:45:54.749Z,7.50
2022-11-14T09:48:30.017Z,7.50
2022-11-14T09:51:16.032Z,7.50
2022-11-14T09:53:47.540Z,7.70
2022-11-14T09:56:19.457Z,7.70
2022-11-14T09:58:46.093Z,7.70
2022-11-14T10:01:40.610Z,7.80
2022-11-14T10:04:31.950Z,7.80
2022-11-14T10:07:25.729Z,7.80
2022-11-14T10:10:22.055Z,7.90
2022-11-14T10:13:14.701Z,8.00
2022-11-14T10:16:04.654Z,8.00
2022-11-14T10:18:44.717Z,8.00
2022-11-14T10:21:46.048Z,8.00
2022-11-14T10:24:33.319Z,8.10
2022-11-14T10:27:05.682Z,8.10
2022-11-14T10:29:44.816Z,8.10
2022-11-14T10:32:11.463Z,8.10
2022-11-14T10:34:54.299Z,8.20
2022-11-14T10:37:33.362Z,8.20
2022-11-14T10:40:17.718Z,8.30
2022-11-14T10:42:49.063Z,8.40
2022-11-14T10:45:44.377Z,8.50
2022-11-14T10:48:35.429Z,8.50
2022-11-14T10:51:24.249Z,8.60
2022-11-14T10:54:12.409Z,8.80
2022-11-14T10:56:49.545Z,8.90
2022-11-14T10:59:16.360Z,9.10
2022-11-14T11:01:45.063Z,9.20
2022-11-14T11:04:13.458Z,9.40
2022-11-14T11:06:40.336Z,9.50
2022-11-14T11:09:42.110Z,9.60
2022-11-14T11:12:17.925Z,9.80
2022-11-14T11:15:18.420Z,10.10
2022-11-14T11:17:58.377Z,10.10
2022-11-14T11:20:32.706Z,10.30
2022-11-14T11:23:15.881Z,10.50
2022-11-14T11:25:42.644Z,10.50
2022-11-14T11:28:21.073Z,10.70
2022-11-14T11:31:02.127Z,10.80
2022-11-14T11:33:39.578Z,11.00
2022-11-14T11:36:10.869Z,11.10
2022-11-14T11:38:37.877Z,11.20
2022-11-14T11:42:00.880Z,11.20
2022-11-14T11:44:12.902Z,11.20
2022-11-14T11:47:02.343Z,11.40
2022-11-14T11:49:40.027Z,11.50
2022-11-14T11:52:31.733Z,11.60
2022-11-14T11:55:20.659Z,11.60
2022-11-14T11:58:01.648Z,11.50
2022-11-14T12:00:28.816Z,11.40
2022-11-14T12:02:55.890Z,11.40
2022-11-14T12:05:41.038Z,11.40
2022-11-14T12:08:30.495Z,11.30
2022-11-14T12:10:58.289Z,11.30
2022-11-14T12:13:50.473Z,11.20
2022-11-14T12:16:26.469Z,11.20
2022-11-14T12:19:05.090Z,11.20
2022-11-14T12:21:46.915Z,11.20
2022-11-14T12:24:30.550Z,11.20
2022-11-14T12:27:40.107Z,11.10
2022-11-14T12:30:24.061Z,11.10
2022-11-14T12:33:12.764Z,11.10
2022-11-14T12:35:53.810Z,11.10
2022-11-14T12:38:22.608Z,11.20
2022-11-14T12:40:55.646Z,11.20
2022-11-14T12:43:37.839Z,11.20
2022-11-14T12:46:11.590Z,11.20
2022-11-14T12:48:47.913Z,11.20
2022-11-14T12:51:29.694Z,11.10
2022-11-14T12:53:57.970Z,11.10
2022-11-14T12:56:30.796Z,11.10
2022-11-14T12:59:20.745Z,11.10
2022-11-14T13:01:59.453Z,11.10
2022-11-14T13:05:05.339Z,11.10
2022-11-14T13:08:09.897Z,11.10
2022-11-14T13:10:40.837Z,11.00
2022-11-14T13:13:31.720Z,11.00
2022-11-14T13:16:19.211Z,11.00
2022-11-14T13:19:14.873Z,11.00
2022-11-14T13:22:12.402Z,11.10
2022-11-14T13:25:04.043Z,11.10
2022-11-14T13:28:05.820Z,11.10
2022-11-14T13:31:03.204Z,11.20
2022-11-14T13:33:49.544Z,11.20
2022-11-14T13:36:40.202Z,11.30
2022-11-14T13:39:23.749Z,11.30
2022-11-14T13:42:26.003Z,11.40
2022-11-14T13:45:13.943Z,11.40
2022-11-14T13:48:14.859Z,11.30
2022-11-14T13:50:43.395Z,11.30
2022-11-14T13:53:19.966Z,11.30
2022-11-14T13:55:55.855Z,11.30
2022-11-14T13:58:31.729Z,11.40
2022-11-14T14:01:23.251Z,11.50
2022-11-14T14:04:20.428Z,11.50
2022-11-14T14:07:16.017Z,11.50
2022-11-14T14:10:20.473Z,11.60
2022-11-14T14:13:20.225Z,11.60
2022-11-14T14:16:05.794Z,11.50
2022-11-14T14:19:06.758Z,11.50
2022-11-14T14:28:15.486Z,11.30
2022-11-14T14:31:09.487Z,11.10
2022-11-14T14:33:45.209Z,11.00
2022-11-14T14:36:25.547Z,10.90
2022-11-14T14:39:09.391Z,10.80
2022-11-14T14:41:36.100Z,10.60
2022-11-14T14:44:02.925Z,10.40
2022-11-14T14:46:31.969Z,10.30
2022-11-14T14:49:02.598Z,10.20
2022-11-14T14:51:34.883Z,10.00
2022-11-14T14:54:02.284Z,9.90
2022-11-14T14:56:29.060Z,9.80
2022-11-14T14:58:56.188Z,9.70
2022-11-14T15:01:31.126Z,9.60
2022-11-14T15:04:08.807Z,9.50
2022-11-14T15:06:37.687Z,9.40
2022-11-14T15:09:17.810Z,9.30
2022-11-14T15:11:47.724Z,9.10
2022-11-14T15:14:18.093Z,9.00
2022-11-14T15:16:49.861Z,8.90
2022-11-14T15:19:23.467Z,8.80
2022-11-14T15:22:15.882Z,8.80
2022-11-14T15:24:42.616Z,8.70
2022-11-14T15:27:14.549Z,8.60
2022-11-14T15:29:56.837Z,8.50
2022-11-14T15:32:25.378Z,8.40
2022-11-14T15:35:25.536Z,8.30
2022-11-14T15:38:28.850Z,8.30
2022-11-14T15:41:23.547Z,8.10
2022-11-14T15:43:52.997Z,8.00
2022-11-14T15:46:27.083Z,7.90
2022-11-14T15:48:54.189Z,7.90
2022-11-14T15:51:41.388Z,7.80
2022-11-14T15:54:26.128Z,7.70
2022-11-14T15:56:55.460Z,7.70
2022-11-14T15:59:23.036Z,7.60
2022-11-14T16:01:52.561Z,7.60
2022-11-14T16:04:26.060Z,7.60
2022-11-14T16:06:52.754Z,7.50
2022-11-14T16:09:21.005Z,7.50
2022-11-14T16:11:49.143Z,7.50
2022-11-14T16:14:15.865Z,7.40
2022-11-14T16:16:42.475Z,7.40
2022-11-14T16:19:14.060Z,7.30
2022-11-14T16:21:41.529Z,7.30
2022-11-14T16:24:17.882Z,7.30
2022-11-14T16:26:45.197Z,7.20
2022-11-14T16:29:12.029Z,7.10
2022-11-14T16:31:39.141Z,7.10
2022-11-14T16:34:06.631Z,7.10
2022-11-14T16:36:33.346Z,7.00
2022-11-14T16:39:03.016Z,7.00
2022-11-14T16:41:29.797Z,7.00
2022-11-14T16:43:57.502Z,6.90
2022-11-14T16:46:24.535Z,6.90
2022-11-14T16:48:51.372Z,6.90
2022-11-14T16:51:46.278Z,6.90
2022-11-14T16:54:04.676Z,6.90
2022-11-14T16:56:31.411Z,6.90
2022-11-14T16:58:58.073Z,6.90
2022-11-14T17:01:24.817Z,6.90
2022-11-14T17:03:52.251Z,6.90
2022-11-14T17:06:19.043Z,6.90
2022-11-14T17:08:45.690Z,6.90
2022-11-14T17:11:12.346Z,6.80
2022-11-14T17:13:39.078Z,6.80
2022-11-14T17:16:06.082Z,6.80
2022-11-14T17:18:38.425Z,6.70
2022-11-14T17:21:06.732Z,6.70
2022-11-14T17:23:33.388Z,6.70
2022-11-14T17:26:09.205Z,6.60
2022-11-14T17:28:36.169Z,6.60
2022-11-14T17:31:09.187Z,6.60
2022-11-14T17:33:36.730Z,6.50
2022-11-14T17:36:07.538Z,6.50
2022-11-14T17:38:35.538Z,6.50
2022-11-14T17:41:05.733Z,6.50
2022-11-14T17:43:39.786Z,6.50
2022-11-14T17:46:12.668Z,6.50
2022-11-14T17:48:42.240Z,6.50
2022-11-14T17:51:15.454Z,6.40
2022-11-14T17:53:42.806Z,6.30
2022-11-14T17:56:15.435Z,6.30
2022-11-14T17:58:42.199Z,6.30
2022-11-14T18:01:10.437Z,6.20
2022-11-14T18:03:37.122Z,6.20
2022-11-14T18:06:07.412Z,6.20
2022-11-14T18:08:34.533Z,6.20
2022-11-14T18:11:07.537Z,6.10
2022-11-14T18:13:34.746Z,6.10
2022-11-14T18:16:07.934Z,6.00
2022-11-14T18:18:36.374Z,6.00
2022-11-14T18:21:12.947Z,5.90
2022-11-14T18:23:39.667Z,5.90
2022-11-14T18:26:11.436Z,5.90
2022-11-14T18:28:38.588Z,5.90
2022-11-14T18:31:07.418Z,5.90
2022-11-14T18:33:35.817Z,5.80
2022-11-14T18:36:04.139Z,5.80
2022-11-14T18:38:33.178Z,5.80
2022-11-14T18:41:01.250Z,5.70
2022-11-14T18:43:31.994Z,5.70
2022-11-14T18:46:13.223Z,5.70
2022-11-14T18:48:41.111Z,5.60
2022-11-14T18:51:11.988Z,5.60
2022-11-14T18:53:39.008Z,5.60
2022-11-14T18:56:11.715Z,5.50
2022-11-14T18:58:42.240Z,5.50
2022-11-14T19:01:11.074Z,5.50
2022-11-14T19:03:38.212Z,5.50
2022-11-14T19:06:07.048Z,5.50
2022-11-14T19:08:33.888Z,5.40
2022-11-14T19:11:06.364Z,5.40
2022-11-14T19:13:33.419Z,5.30
2022-11-14T19:16:04.697Z,5.30
2022-11-14T19:18:31.917Z,5.30
2022-11-14T19:21:03.217Z,5.20
2022-11-14T19:23:30.132Z,5.10
2022-11-14T19:26:01.384Z,5.10
2022-11-14T19:28:31.800Z,5.00
2022-11-14T19:31:02.696Z,5.00
2022-11-14T19:33:29.601Z,5.00
2022-11-14T19:35:56.628Z,5.00
2022-11-14T19:38:23.408Z,5.00
2022-11-14T19:40:53.079Z,5.00
2022-11-14T19:43:28.121Z,5.00
2022-11-14T19:45:58.191Z,4.90
2022-11-14T19:48:25.498Z,4.90
2022-11-14T19:51:05.977Z,4.90
2022-11-14T19:53:36.479Z,4.80
2022-11-14T19:56:08.617Z,4.80
2022-11-14T19:58:37.142Z,4.80
2022-11-14T20:01:11.830Z,4.90
2022-11-14T20:03:39.063Z,4.90
2022-11-14T20:06:15.576Z,5.00
2022-11-14T20:08:42.420Z,5.10
2022-11-14T20:11:09.264Z,5.30
2022-11-14T20:13:42.051Z,5.50
2022-11-14T20:16:16.785Z,5.60
2022-11-14T20:18:57.510Z,5.90
2022-11-14T20:21:27.547Z,5.80
2022-11-14T20:23:54.226Z,5.70
2022-11-14T20:26:21.669Z,5.50
2022-11-14T20:28:51.933Z,5.40
2022-11-14T20:31:24.634Z,5.30
2022-11-14T20:33:53.005Z,5.10
2022-11-14T20:36:22.209Z,5.00
2022-11-14T20:38:49.372Z,4.90
2022-11-14T20:41:16.635Z,4.80
2022-11-14T20:43:43.815Z,4.80
2022-11-14T20:46:17.180Z,4.80
2022-11-14T20:48:44.870Z,4.70
2022-11-14T20:51:14.346Z,4.60
2022-11-14T20:53:41.752Z,4.60
2022-11-14T20:56:09.722Z,4.60
2022-11-14T20:58:36.442Z,4.50
2022-11-14T21:01:03.507Z,4.50
2022-11-14T21:03:30.411Z,4.40
2022-11-14T21:05:57.689Z,4.40
2022-11-14T21:08:24.300Z,4.40
2022-11-14T21:10:57.226Z,4.30
2022-11-14T21:13:42.506Z,4.30
2022-11-14T21:16:12.099Z,4.30
2022-11-14T21:18:43.891Z,4.30
2022-11-14T21:21:16.352Z,4.20
2022-11-14T21:23:44.334Z,4.20
2022-11-14T21:26:21.284Z,4.10
2022-11-14T21:28:51.654Z,4.10
2022-11-14T21:31:21.312Z,4.10
2022-11-14T21:33:49.527Z,4.10
2022-11-14T21:39:04.862Z,4.00
2022-11-14T21:41:32.424Z,4.00
2022-11-14T21:44:03.359Z,4.00
2022-11-14T21:46:30.254Z,4.00
2022-11-14T21:48:57.676Z,4.00
2022-11-14T21:51:27.004Z,4.00
2022-11-14T21:53:56.286Z,4.00
2022-11-14T21:56:28.539Z,4.00
2022-11-14T21:59:12.603Z,4.00
2022-11-14T22:02:08.904Z,3.90
2022-11-14T22:04:36.426Z,3.90
2022-11-14T22:07:06.548Z,3.90
2022-11-14T22:09:34.356Z,3.90
2022-11-14T22:12:01.609Z,3.90
2022-11-14T22:14:29.341Z,3.90
2022-11-14T22:16:56.483Z,3.90
2022-11-14T22:19:23.384Z,3.90
2022-11-14T22:21:50.030Z,3.90
2022-11-14T22:24:16.650Z,3.90
2022-11-14T22:26:43.274Z,3.90
2022-11-14T22:29:09.905Z,3.90
2022-11-14T22:31:37.907Z,3.80
2022-11-14T22:34:05.135Z,3.80
2022-11-14T22:36:32.081Z,3.80
2022-11-14T22:38:58.781Z,3.80
2022-11-14T22:41:33.005Z,3.80
2022-11-14T22:44:00.772Z,3.70
2022-11-14T22:46:27.878Z,3.70
2022-11-14T22:48:54.922Z,3.70
2022-11-14T22:51:26.071Z,3.70
2022-11-14T22:53:54.745Z,3.60
2022-11-14T22:56:25.064Z,3.60
2022-11-14T22:58:51.937Z,3.50
2022-11-14T23:01:27.615Z,3.50
2022-11-14T23:03:56.980Z,3.50
2022-11-14T23:06:24.548Z,3.50
2022-11-14T23:08:51.554Z,3.40
2022-11-14T23:11:21.275Z,3.40
2022-11-14T23:13:50.513Z,3.40
2022-11-14T23:16:20.556Z,3.40
2022-11-14T23:18:48.405Z,3.40
2022-11-14T23:21:20.721Z,3.40
2022-11-14T23:23:52.815Z,3.40
2022-11-14T23:26:19.558Z,3.40
2022-11-14T23:28:46.178Z,3.30
2022-11-14T23:31:13.107Z,3.30
2022-11-14T23:33:39.744Z,3.30
2022-11-14T23:36:06.423Z,3.30
2022-11-14T23:38:33.059Z,3.30
2022-11-14T23:41:01.390Z,3.30
2022-11-14T23:43:29.495Z,3.30
2022-11-14T23:45:56.931Z,3.30
2022-11-14T23:48:24.223Z,3.20
2022-11-14T23:50:52.246Z,3.20
2022-11-14T23:53:19.560Z,3.20
2022-11-14T23:56:00.239Z,3.10
2022-11-14T23:58:28.428Z,3.10
